»·PEaware :: DCM205 KBFI-KPDX

DCM205 :: KBFI-KPDX

FLIGHT INFORMATION

Flight Status: Arrived
Operator:
DotCom
More flights by this operator :: More flights under this callsign
Pilot: Chris S. (2433)
Aircraft: AIRBUS A320
(A320)
More flights by this aircraft type
Origin: KBFI Boeing Field/King Co Intl
United States
Destination: KPDX Portland Intl
United States
More flights between these airports :: More routes between these airports
Route: NRVNA1 BUWZO KRATR2
File this flight plan on PilotEdge
Remarks:
Altitude:
(Current/Filed)
19,000ft
Speed:
(Current/Filed)
450kts
Departed: 28-Mar-20 12:15 PM
Arrived: 28-Mar-20 12:44 PM
Distance/Time
Traveled:
117nm/0:29
Distance/Time
To Go:
Arrived

Flight Plot

Page will automatically refresh every two minutes.

Flight plan parsing failed; only flown route is shown


Map Options




Map Legend


Flown Route
Filed Route
Departure Airport
Arrival Airport
Navaid (VOR, NDB)
Fix

Horizontal Profiles

Position Reports

Time Latitude Longitude Heading Altitude Ground
Speed
28-Mar-20 11:32 47.535167 -122.309718 243 32ft 0kts
28-Mar-20 11:33 47.535167 -122.309718 243 32ft 0kts
28-Mar-20 11:34 47.535167 -122.309718 243 32ft 0kts
28-Mar-20 11:35 47.535167 -122.309718 243 32ft 0kts
28-Mar-20 11:36 47.534748 -122.309862 156 32ft 9kts
28-Mar-20 11:37 47.533087 -122.307892 61 32ft 0kts
28-Mar-20 11:38 47.533087 -122.307892 61 32ft 0kts
28-Mar-20 11:39 47.533087 -122.307891 61 32ft 0kts
28-Mar-20 11:40 47.533087 -122.307891 61 32ft 0kts
28-Mar-20 11:41 47.533087 -122.307890 61 32ft 0kts
28-Mar-20 11:42 47.533641 -122.307077 10 32ft 14kts
28-Mar-20 11:43 47.536725 -122.309513 322 32ft 7kts
28-Mar-20 11:44 47.538142 -122.310830 330 32ft 0kts
28-Mar-20 11:45 47.538161 -122.310846 330 32ft 1kts
28-Mar-20 11:46 47.538900 -122.311467 330 32ft 0kts
28-Mar-20 11:47 47.539334 -122.311837 329 32ft 0kts
28-Mar-20 11:48 47.539334 -122.311838 329 32ft 0kts
28-Mar-20 11:49 47.539335 -122.311838 329 32ft 0kts
28-Mar-20 11:50 47.539335 -122.311838 329 32ft 0kts
28-Mar-20 11:51 47.539335 -122.311838 329 32ft 0kts
28-Mar-20 11:52 47.539335 -122.311839 329 32ft 0kts
28-Mar-20 11:53 47.539336 -122.311839 329 32ft 0kts
28-Mar-20 11:54 47.539336 -122.311839 329 32ft 0kts
28-Mar-20 11:55 47.539336 -122.311839 329 32ft 0kts
28-Mar-20 11:56 47.539337 -122.311840 329 32ft 0kts
28-Mar-20 11:57 47.539337 -122.311840 329 32ft 0kts
28-Mar-20 11:58 47.540030 -122.312180 51 32ft 3kts
28-Mar-20 11:59 47.540039 -122.312162 53 32ft 0kts
28-Mar-20 12:00 47.540039 -122.312162 53 32ft 0kts
28-Mar-20 12:01 47.540039 -122.312161 53 32ft 0kts
28-Mar-20 12:02 47.540039 -122.312161 53 32ft 0kts
28-Mar-20 12:03 47.540039 -122.312161 53 32ft 0kts
28-Mar-20 12:04 47.540040 -122.312160 53 32ft 0kts
28-Mar-20 12:05 47.540040 -122.312160 53 32ft 0kts
28-Mar-20 12:06 47.540040 -122.312160 53 32ft 0kts
28-Mar-20 12:07 47.540040 -122.312159 53 32ft 0kts
28-Mar-20 12:08 47.540357 -122.311393 94 32ft 7kts
28-Mar-20 12:09 47.540171 -122.311065 147 32ft 0kts
28-Mar-20 12:10 47.540170 -122.311065 147 32ft 0kts
28-Mar-20 12:11 47.540170 -122.311065 147 32ft 0kts
28-Mar-20 12:12 47.540170 -122.311064 147 32ft 0kts
28-Mar-20 12:13 47.540170 -122.311064 147 32ft 0kts
28-Mar-20 12:14 47.524917 -122.298038 150 136ft 166kts
28-Mar-20 12:15 47.481832 -122.262282 151 1959ft 220kts
28-Mar-20 12:16 47.423376 -122.212766 153 4572ft 249kts
28-Mar-20 12:17 47.361314 -122.160628 155 7781ft 263kts
28-Mar-20 12:18 47.292410 -122.141192 201 10550ft 271kts
28-Mar-20 12:19 47.212250 -122.182838 200 11927ft 336kts
28-Mar-20 12:20 47.119957 -122.227477 200 14173ft 356kts
28-Mar-20 12:21 47.025085 -122.273659 200 16792ft 355kts
28-Mar-20 12:22 46.928108 -122.311756 188 18802ft 372kts
28-Mar-20 12:23 46.824675 -122.323318 187 19075ft 377kts
28-Mar-20 12:24 46.718598 -122.334848 187 19074ft 381kts
28-Mar-20 12:25 46.612940 -122.346400 187 18606ft 379kts
28-Mar-20 12:26 46.509638 -122.357698 187 17550ft 358kts
28-Mar-20 12:27 46.411479 -122.368330 187 15591ft 348kts
28-Mar-20 12:28 46.316204 -122.378602 187 13764ft 337kts
28-Mar-20 12:29 46.224317 -122.388376 187 12021ft 325kts
28-Mar-20 12:30 46.141531 -122.397148 187 11964ft 279kts
28-Mar-20 12:31 46.065485 -122.414455 202 11450ft 275kts
28-Mar-20 12:32 45.994437 -122.453987 202 9607ft 268kts
28-Mar-20 12:33 45.929109 -122.490889 213 7731ft 253kts
28-Mar-20 12:34 45.877276 -122.556437 221 6987ft 243kts
28-Mar-20 12:35 45.826732 -122.619985 221 6304ft 237kts
28-Mar-20 12:36 45.777574 -122.681862 221 4996ft 229kts
28-Mar-20 12:37 45.732769 -122.736313 219 3890ft 191kts
28-Mar-20 12:38 45.691474 -122.772546 185 2895ft 176kts
28-Mar-20 12:39 45.651651 -122.743117 124 2252ft 152kts
28-Mar-20 12:40 45.632087 -122.691687 122 1596ft 140kts
28-Mar-20 12:41 45.613173 -122.643074 124 810ft 137kts
28-Mar-20 12:42 45.594961 -122.595931 122 73ft 128kts
28-Mar-20 12:43 45.586421 -122.576290 201 32ft 6kts
28-Mar-20 12:44 45.586313 -122.576361 206 32ft 1kts
28-Mar-20 12:45 45.588069 -122.581587 298 32ft 23kts
28-Mar-20 12:46 45.590251 -122.589497 282 32ft 14kts
28-Mar-20 12:47 45.589882 -122.590568 220 32ft 0kts
28-Mar-20 12:48 45.589882 -122.590568 220 32ft 0kts
28-Mar-20 12:49 45.589882 -122.590568 220 32ft 0kts
28-Mar-20 12:50 45.589882 -122.590568 220 32ft 0kts
28-Mar-20 12:51 45.589882 -122.590568 220 32ft 0kts
28-Mar-20 12:52 45.589882 -122.590568 220 32ft 0kts
28-Mar-20 12:53 45.589882 -122.590568 220 32ft 0kts
28-Mar-20 12:54 45.589882 -122.590568 220 32ft 0kts
28-Mar-20 12:55 45.589882 -122.590568 220 32ft 0kts
28-Mar-20 12:56 45.589882 -122.590568 220 32ft 0kts

Navigation Log

Ident Type
Flight plan parsing failed, navigation log unavailable